SUAAMMPA

Guest
Details From SUAA - Angel S Adami
To MMPA - Tajin
Flight Number -
Tags Decoded
Created
Modified
Stats Distance 4,319 nm / 7,998 km
Max Altitude 39,000 ft / 11,887 m
Waypoints 5
Social Downloads 0
Likes 0
Share VATSIM

Download

Looking for another format? Having issues loading an existing format? Contact us
Advertisement - Login to hide

Notes

Decoded

Route

ASI EQU OLGAS KOMPA PAZ

ID Type Via Altitude Latitude Longitude Leg Dist Tot Dist Heading (true) Name
O ASI NDB - 0 ft / 0 m -34.78953˚ -56.26303˚ - 0 nm - ADAMI NDB
EQU VOR - 39,000 ft / 11,887 m -16.33889˚ -71.59750˚ 1381 nm 1381 nm 319° / 326° AREQUIPA VOR-DME
OLGAS FIX - 39,000 ft / 11,887 m -16.38556˚ -70.77111˚ 47 nm 1428 nm 93° / 93° -
KOMPA FIX - 39,000 ft / 11,887 m -16.47500˚ -69.00000˚ 102 nm 1530 nm 93° / 93° -
O PAZ VOR - 0 ft / 0 m 20.60056˚ -97.45508˚ 2787 nm 4318 nm 322° / 321° POZA RICA VOR-DME

Altitude Profile

Advertisement - Login to hide

Weather


0- 5 10 15 20 25 30 35+ Temperature / ° C

Clouds and Precipitation
Forecast for 2017-12-15 00:00 UTC. Updated 2 hours ago

Ground ~20,000 ft ~40,000 ft Winds

SUAA

Details ICAO SUAA
Name ANGEL S ADAMI
Region Uruguay
Timezone America/Montevideo (UTC-3.0)
Stats Elevation 174 ft / 53 m (AMSL)
Location -34.789096° -56.264702°
Runways 1
Magnetic Variation 10.654° W

METAR

SUAA 142100Z 27014KT 9999 FEW030 29/15 Q1009

Decode

TAF

TAF TAF SUAA 141730Z 1418/1518 25010KT 9999 FEW030 TX33/1518Z TN18/1509Z BECMG 1422/1500 10015KT BECMG 1504/1506 04010KT BECMG 1514/1516 28005KT BECMG 1516/1518 20010KT

Decode

Departure Runways

ID Width Length Bearing (true) Bearing (mag) Surface Threshold Offset Overrun Length
18 75 ft / 23 m 4,194 ft / 1,278 m 176.77° 187.42° Concrete 0 ft / 0 m 0 ft / 0 m
36 75 ft / 23 m 4,194 ft / 1,278 m 356.77° 7.42° Concrete 0 ft / 0 m 0 ft / 0 m

MMPA

Details ICAO MMPA (PAZ)
Name TAJIN
Region Mexico
Timezone America/Mexico_City (UTC-6.0)
Stats Elevation 497 ft / 151 m (AMSL)
Location 20.602670° -97.460837°
Runways 1
Magnetic Variation 3.900° E

METAR

Not found

TAF

TAF MMPA 141714Z 1418/1518 10008KT 5SM HZ SCT015 BKN070 BKN280 FM150300 28005KT 4SM HZ BKN010 BECMG 1508/1509 1SM BR HZ BKN006 OVC010 TEMPO 1510/1514 OVC005 FM151600 29008KT 2SM -RA BR BKN008 OVC020

Decode

Destination Runways

ID Width Length Bearing (true) Bearing (mag) Surface Threshold Offset Overrun Length
08 148 ft / 45 m 5,896 ft / 1,797 m 89.06° 85.16° Asphalt 0 ft / 0 m 200 ft / 61 m
26 148 ft / 45 m 5,896 ft / 1,797 m 269.07° 265.17° Asphalt 0 ft / 0 m 200 ft / 61 m

Popular Alternatives